Terminal Aerodrome Forecast
Issued by NWS

Home | Current Version | Previous Version | Text Only | Print | Product List | Glossary On
Versions: 1 2 3 4 5 6 7 8 9 10 11 12 13 14 15 16 17 18 19 20 21 22 23 24 25
000
FTUS43 KLSX 301618 AAD
TAFSUS
TAF AMD
KSUS 301618Z 3016/0112 14010G18KT P6SM BKN015 OVC030
      TEMPO 3016/3017 6SM -RA BR BKN009
     FM301800 18010KT P6SM SCT015 BKN040
     FM010000 22005KT P6SM VCTS SCT040CB
     FM010300 27005KT P6SM SCT040=

USA.gov is the U.S. government's official web portal to all federal, state and local government web resources and services.